createdAt,value
2022-08-03T00:02:17.800Z,50.59
2022-08-03T00:04:45.566Z,50.71
2022-08-03T00:07:12.773Z,50.76
2022-08-03T00:09:40.022Z,50.82
2022-08-03T00:12:07.791Z,50.87
2022-08-03T00:14:35.148Z,50.73
2022-08-03T00:17:03.930Z,50.96
2022-08-03T00:19:31.265Z,50.89
2022-08-03T00:21:58.360Z,50.88
2022-08-03T00:24:25.635Z,50.92
2022-08-03T00:26:52.859Z,51.04
2022-08-03T00:29:20.240Z,51.19
2022-08-03T00:31:59.354Z,51.62
2022-08-03T00:34:57.286Z,51.14
2022-08-03T00:37:15.203Z,51.14
2022-08-03T00:39:46.049Z,51.27
2022-08-03T00:42:13.557Z,51.24
2022-08-03T00:44:42.740Z,51.57
2022-08-03T00:47:11.777Z,51.62
2022-08-03T00:49:41.130Z,51.60
2022-08-03T00:52:13.918Z,52.23
2022-08-03T00:54:41.311Z,51.89
2022-08-03T00:57:09.261Z,52.23
2022-08-03T00:59:38.390Z,52.18
2022-08-03T01:02:06.208Z,52.39
2022-08-03T01:04:33.433Z,52.40
2022-08-03T01:07:32.765Z,53.13
2022-08-03T01:10:28.706Z,53.13
2022-08-03T01:14:01.944Z,53.17
2022-08-03T01:16:36.516Z,53.09
2022-08-03T01:19:34.908Z,53.27
2022-08-03T01:22:23.270Z,53.14
2022-08-03T01:25:15.125Z,53.48
2022-08-03T01:27:57.677Z,53.65
2022-08-03T01:30:31.642Z,53.80
2022-08-03T01:33:12.705Z,53.80
2022-08-03T01:35:46.806Z,53.62
2022-08-03T01:38:19.216Z,53.43
2022-08-03T01:40:48.033Z,53.30
2022-08-03T01:44:26.792Z,53.77
2022-08-03T01:46:09.316Z,53.65
2022-08-03T01:48:39.873Z,53.90
2022-08-03T01:51:09.322Z,53.96
2022-08-03T01:53:38.464Z,53.78
2022-08-03T01:56:07.743Z,54.09
2022-08-03T01:58:37.440Z,54.00
2022-08-03T02:01:07.382Z,54.31
2022-08-03T02:03:38.698Z,54.20
2022-08-03T02:07:01.968Z,54.20
2022-08-03T02:09:17.868Z,54.06
2022-08-03T02:11:47.286Z,54.33
2022-08-03T02:14:16.534Z,54.36
2022-08-03T02:16:46.306Z,54.28
2022-08-03T02:19:14.948Z,54.34
2022-08-03T02:21:56.746Z,54.37
2022-08-03T02:24:32.139Z,54.24
2022-08-03T02:27:01.440Z,54.54
2022-08-03T02:29:40.285Z,54.90
2022-08-03T02:32:17.566Z,54.67
2022-08-03T02:34:49.455Z,54.64
2022-08-03T02:37:20.178Z,54.85
2022-08-03T02:39:49.384Z,54.28
2022-08-03T02:42:18.946Z,54.36
2022-08-03T02:44:50.137Z,54.43
2022-08-03T02:47:21.514Z,54.54
2022-08-03T02:49:52.315Z,54.24
2022-08-03T02:52:26.917Z,54.33
2022-08-03T02:54:59.382Z,54.30
2022-08-03T02:57:32.151Z,54.50
2022-08-03T03:00:00.461Z,54.06
2022-08-03T03:02:29.954Z,54.01
2022-08-03T03:05:54.740Z,53.90
2022-08-03T03:07:51.873Z,53.69
2022-08-03T03:10:22.767Z,53.83
2022-08-03T03:12:56.885Z,53.89
2022-08-03T03:15:26.249Z,53.67
2022-08-03T03:17:54.735Z,53.40
2022-08-03T03:20:29.800Z,53.37
2022-08-03T03:23:01.757Z,53.52
2022-08-03T03:25:33.087Z,53.44
2022-08-03T03:28:02.076Z,53.10
2022-08-03T03:30:30.295Z,53.03
2022-08-03T03:32:59.788Z,52.96
2022-08-03T03:35:28.288Z,52.80
2022-08-03T03:37:59.635Z,52.84
2022-08-03T03:40:28.361Z,52.58
2022-08-03T03:42:58.858Z,52.65
2022-08-03T03:45:27.322Z,52.67
2022-08-03T03:47:54.781Z,52.55
2022-08-03T03:50:23.162Z,52.50
2022-08-03T03:52:50.449Z,52.54
2022-08-03T03:55:24.245Z,52.69
2022-08-03T03:58:17.617Z,52.51
2022-08-03T04:00:51.019Z,52.36
2022-08-03T04:03:19.259Z,52.09
2022-08-03T04:06:05.768Z,51.98
2022-08-03T04:08:59.493Z,51.91
2022-08-03T04:11:44.339Z,52.04
2022-08-03T04:14:40.672Z,51.86
2022-08-03T04:17:15.097Z,51.57
2022-08-03T04:19:51.523Z,51.40
2022-08-03T04:22:29.116Z,51.08
2022-08-03T04:25:08.647Z,51.25
2022-08-03T04:28:07.751Z,51.17
2022-08-03T04:30:54.459Z,50.88
2022-08-03T04:33:47.351Z,50.73
2022-08-03T04:36:21.661Z,50.67
2022-08-03T04:39:06.362Z,50.51
2022-08-03T04:42:08.335Z,50.35
2022-08-03T04:44:28.309Z,50.17
2022-08-03T04:47:00.123Z,49.94
2022-08-03T04:49:30.212Z,49.75
2022-08-03T04:52:02.440Z,49.74
2022-08-03T04:54:29.884Z,49.56
2022-08-03T04:57:27.248Z,49.51
2022-08-03T05:00:03.047Z,49.35
2022-08-03T05:02:32.449Z,49.12
2022-08-03T05:05:00.926Z,48.91
2022-08-03T05:07:35.613Z,48.74
2022-08-03T05:10:16.173Z,48.37
2022-08-03T05:16:59.112Z,47.98
2022-08-03T05:19:26.239Z,47.75
2022-08-03T05:21:53.174Z,47.75
2022-08-03T05:24:20.166Z,47.43
2022-08-03T05:26:47.198Z,47.21
2022-08-03T05:29:14.215Z,47.11
2022-08-03T05:31:41.190Z,46.84
2022-08-03T05:34:09.542Z,46.53
2022-08-03T05:36:36.539Z,46.39
2022-08-03T05:39:03.626Z,46.60
2022-08-03T05:41:36.992Z,46.21
2022-08-03T05:44:05.140Z,46.05
2022-08-03T05:46:32.277Z,45.99
2022-08-03T05:49:00.572Z,45.74
2022-08-03T05:51:29.046Z,45.64
2022-08-03T05:53:56.379Z,45.77
2022-08-03T05:56:25.325Z,45.51
2022-08-03T05:58:52.781Z,45.34
2022-08-03T06:01:22.074Z,45.21
2022-08-03T06:03:50.837Z,44.89
2022-08-03T06:06:18.719Z,45.05
2022-08-03T06:08:46.161Z,44.58
2022-08-03T06:11:19.246Z,44.46
2022-08-03T06:13:46.515Z,44.53
2022-08-03T06:16:14.206Z,44.34
2022-08-03T06:18:41.569Z,43.80
2022-08-03T06:21:15.610Z,44.02
2022-08-03T06:23:54.307Z,43.41
2022-08-03T06:26:31.995Z,43.27
2022-08-03T06:29:03.786Z,43.28
2022-08-03T06:31:32.360Z,42.93
2022-08-03T06:34:34.182Z,42.71
2022-08-03T06:36:53.022Z,42.54
2022-08-03T06:46:48.618Z,41.83
2022-08-03T06:49:15.729Z,41.79
2022-08-03T06:52:04.442Z,41.36
2022-08-03T06:54:32.870Z,41.22
2022-08-03T06:57:00.968Z,41.11
2022-08-03T07:00:10.306Z,40.58
2022-08-03T07:02:22.384Z,40.48
2022-08-03T07:04:49.704Z,40.49
2022-08-03T07:07:17.585Z,40.26
2022-08-03T07:09:56.922Z,39.85
2022-08-03T07:12:26.806Z,39.84
2022-08-03T07:14:57.947Z,39.45
2022-08-03T07:17:27.322Z,39.35
2022-08-03T07:19:54.346Z,38.84
2022-08-03T07:22:21.297Z,38.89
2022-08-03T07:24:48.323Z,38.68
2022-08-03T07:27:16.528Z,38.40
2022-08-03T07:29:43.616Z,37.98
2022-08-03T07:32:10.655Z,37.97
2022-08-03T07:34:39.648Z,37.12
2022-08-03T07:37:06.684Z,37.50
2022-08-03T07:39:36.312Z,37.44
2022-08-03T07:42:03.477Z,37.42
2022-08-03T07:44:30.419Z,37.13
2022-08-03T07:46:57.908Z,37.06
2022-08-03T07:49:25.777Z,36.99
2022-08-03T07:52:11.255Z,37.01
2022-08-03T07:54:56.851Z,36.88
2022-08-03T07:57:24.470Z,36.77
2022-08-03T08:00:01.512Z,36.75
2022-08-03T08:02:39.119Z,36.97
2022-08-03T08:05:06.493Z,36.73
2022-08-03T08:07:33.649Z,36.59
2022-08-03T08:10:04.265Z,36.33
2022-08-03T08:12:31.220Z,36.11
2022-08-03T08:14:58.456Z,35.83
2022-08-03T08:17:25.502Z,35.61
2022-08-03T08:19:53.291Z,35.83
2022-08-03T08:22:29.829Z,35.55
2022-08-03T08:25:01.869Z,35.44
2022-08-03T08:28:29.417Z,35.35
2022-08-03T08:30:19.649Z,35.61
2022-08-03T08:32:48.088Z,35.61
2022-08-03T08:35:16.009Z,35.80
2022-08-03T08:37:44.298Z,35.61
2022-08-03T08:40:21.943Z,35.28
2022-08-03T08:42:58.388Z,35.52
2022-08-03T08:45:28.875Z,35.68
2022-08-03T08:48:01.884Z,35.21
2022-08-03T08:50:38.990Z,35.04
2022-08-03T08:53:09.837Z,34.82
2022-08-03T08:55:58.396Z,35.18
2022-08-03T08:58:28.801Z,34.41
2022-08-03T09:00:56.236Z,34.25
2022-08-03T09:03:30.134Z,33.93
2022-08-03T09:06:00.931Z,34.05
2022-08-03T09:08:29.869Z,33.70
2022-08-03T09:10:56.901Z,33.79
2022-08-03T09:13:24.357Z,34.04
2022-08-03T09:16:09.327Z,34.01
2022-08-03T09:18:36.317Z,34.14
2022-08-03T09:21:31.731Z,33.86
2022-08-03T09:24:03.336Z,34.07
2022-08-03T09:26:32.159Z,33.86
2022-08-03T09:29:14.916Z,33.37
2022-08-03T09:31:47.050Z,33.63
2022-08-03T09:34:16.766Z,33.70
2022-08-03T09:36:48.834Z,33.26
2022-08-03T09:39:40.424Z,33.46
2022-08-03T09:42:15.636Z,33.32
2022-08-03T09:44:47.934Z,33.12
2022-08-03T09:47:28.362Z,33.38
2022-08-03T09:50:05.653Z,33.45
2022-08-03T09:52:49.641Z,33.33
2022-08-03T09:56:33.620Z,33.29
2022-08-03T09:58:14.473Z,33.54
2022-08-03T10:00:56.678Z,33.51
2022-08-03T10:03:25.509Z,33.58
2022-08-03T10:05:59.022Z,33.35
2022-08-03T10:08:26.563Z,32.78
2022-08-03T10:10:55.254Z,32.76
2022-08-03T10:13:23.317Z,32.43
2022-08-03T10:16:22.082Z,32.78
2022-08-03T10:18:37.757Z,32.40
2022-08-03T10:21:08.891Z,31.98
2022-08-03T10:23:38.026Z,32.67
2022-08-03T10:26:07.932Z,32.17
2022-08-03T10:28:44.357Z,32.44
2022-08-03T10:31:14.305Z,32.45
2022-08-03T10:33:53.019Z,32.54
2022-08-03T10:36:24.399Z,32.68
2022-08-03T10:38:53.435Z,33.04
2022-08-03T10:41:22.047Z,32.96
2022-08-03T10:44:14.111Z,32.70
2022-08-03T10:46:45.273Z,32.90
2022-08-03T10:49:20.654Z,32.79
2022-08-03T10:52:13.365Z,32.77
2022-08-03T10:55:10.718Z,32.83
2022-08-03T10:57:58.784Z,32.74
2022-08-03T11:00:28.417Z,33.04
2022-08-03T11:03:08.960Z,32.75
2022-08-03T11:05:43.842Z,32.65
2022-08-03T11:08:26.271Z,32.10
2022-08-03T11:10:58.333Z,31.96
2022-08-03T11:13:28.459Z,32.11
2022-08-03T11:16:00.029Z,32.00
2022-08-03T11:18:29.683Z,31.63
2022-08-03T11:20:59.036Z,31.80
2022-08-03T11:24:04.233Z,31.35
2022-08-03T11:26:34.664Z,31.71
2022-08-03T11:29:40.900Z,31.76
2022-08-03T11:32:16.643Z,32.13
2022-08-03T11:35:09.886Z,31.68
2022-08-03T11:38:03.150Z,32.11
2022-08-03T11:41:06.761Z,31.97
2022-08-03T11:43:35.854Z,31.97
2022-08-03T11:46:08.700Z,31.26
2022-08-03T11:48:47.384Z,31.44
2022-08-03T11:51:34.219Z,31.84
2022-08-03T11:54:06.506Z,31.93
2022-08-03T11:56:51.060Z,32.06
2022-08-03T11:59:22.254Z,32.01
2022-08-03T12:01:50.678Z,32.04
2022-08-03T12:04:22.315Z,32.38
2022-08-03T12:07:04.079Z,32.26
2022-08-03T12:09:31.624Z,31.96
2022-08-03T12:12:00.646Z,32.37
2022-08-03T12:14:50.131Z,32.59
2022-08-03T12:17:18.245Z,32.41
2022-08-03T12:19:45.969Z,32.44
2022-08-03T12:22:14.210Z,32.35
2022-08-03T12:24:46.754Z,31.50
2022-08-03T12:27:25.182Z,30.46
2022-08-03T12:29:58.496Z,30.11
2022-08-03T12:32:29.923Z,29.66
2022-08-03T12:35:04.935Z,30.14
2022-08-03T12:37:33.074Z,29.86
2022-08-03T12:40:09.467Z,29.93
2022-08-03T12:42:40.800Z,29.77
2022-08-03T12:45:25.190Z,29.46
2022-08-03T12:48:02.569Z,29.10
2022-08-03T12:50:34.785Z,28.98
2022-08-03T12:53:05.397Z,28.91
2022-08-03T12:55:56.734Z,28.99
2022-08-03T12:58:34.676Z,28.71
2022-08-03T13:01:05.116Z,28.13
2022-08-03T13:04:05.722Z,27.06
2022-08-03T13:06:32.818Z,27.08
2022-08-03T13:09:06.702Z,26.04
2022-08-03T13:11:55.508Z,26.11
2022-08-03T13:14:23.695Z,26.09
2022-08-03T13:16:51.564Z,25.49
2022-08-03T13:19:18.733Z,25.16
2022-08-03T13:22:01.673Z,25.32
2022-08-03T13:24:31.811Z,25.64
2022-08-03T13:27:00.294Z,25.35
2022-08-03T13:29:27.938Z,25.11
2022-08-03T13:31:55.135Z,25.47
2022-08-03T13:34:23.834Z,25.48
2022-08-03T13:39:57.296Z,25.74
2022-08-03T13:42:29.740Z,26.18
2022-08-03T13:45:04.484Z,26.18
2022-08-03T13:47:31.917Z,26.42
2022-08-03T13:50:01.928Z,26.84
2022-08-03T13:52:33.653Z,27.27
2022-08-03T13:55:01.993Z,27.01
2022-08-03T13:58:18.927Z,27.26
2022-08-03T14:00:27.917Z,27.66
2022-08-03T14:03:16.421Z,27.15
2022-08-03T14:05:44.191Z,26.73
2022-08-03T14:08:12.225Z,26.20
2022-08-03T14:10:43.497Z,26.35
2022-08-03T14:13:18.952Z,26.42
2022-08-03T14:16:41.538Z,26.20
2022-08-03T14:19:24.883Z,26.56
2022-08-03T14:22:05.247Z,26.03
2022-08-03T14:24:34.175Z,25.68
2022-08-03T14:27:08.633Z,24.98
2022-08-03T14:29:36.496Z,24.19
2022-08-03T14:32:11.914Z,23.45
2022-08-03T14:34:45.927Z,22.93
2022-08-03T14:37:14.550Z,22.93
2022-08-03T14:42:30.001Z,22.20
2022-08-03T14:45:02.450Z,22.57
2022-08-03T14:47:31.770Z,22.54
2022-08-03T14:50:33.839Z,22.25
2022-08-03T14:52:45.674Z,22.11
2022-08-03T14:55:13.156Z,22.26
2022-08-03T14:57:49.051Z,23.04
2022-08-03T15:00:16.386Z,23.74
2022-08-03T15:02:43.429Z,24.32
2022-08-03T15:05:12.835Z,25.32
2022-08-03T15:07:39.796Z,25.65
2022-08-03T15:10:07.036Z,25.90
2022-08-03T15:12:33.962Z,26.54
2022-08-03T15:15:00.982Z,27.04
2022-08-03T15:17:29.544Z,27.55
2022-08-03T15:20:03.087Z,27.38
2022-08-03T15:22:43.477Z,27.67
2022-08-03T15:26:03.894Z,28.09
2022-08-03T15:28:03.718Z,28.31
2022-08-03T15:30:36.087Z,28.31
2022-08-03T15:33:03.697Z,28.64
2022-08-03T15:35:30.693Z,28.99
2022-08-03T15:37:58.125Z,29.27
2022-08-03T15:40:25.072Z,29.23
2022-08-03T15:42:52.096Z,29.71
2022-08-03T15:45:20.443Z,30.18
2022-08-03T15:47:47.536Z,30.44
2022-08-03T15:50:14.501Z,30.64
2022-08-03T15:52:41.458Z,30.74
2022-08-03T15:55:09.111Z,30.43
2022-08-03T15:59:10.431Z,30.51
2022-08-03T16:00:33.587Z,31.22
2022-08-03T16:03:01.348Z,31.13
2022-08-03T16:05:28.829Z,31.50
2022-08-03T16:08:03.100Z,31.68
2022-08-03T16:10:32.231Z,32.11
2022-08-03T16:13:00.312Z,32.50
2022-08-03T16:15:28.161Z,32.60
2022-08-03T16:17:55.237Z,32.84
2022-08-03T16:20:31.438Z,33.00
2022-08-03T16:23:10.302Z,33.18
2022-08-03T16:25:41.787Z,33.38
2022-08-03T16:28:13.765Z,33.79
2022-08-03T16:30:43.962Z,33.90
2022-08-03T16:33:17.465Z,34.19
2022-08-03T16:35:46.625Z,34.18
2022-08-03T16:38:18.576Z,34.43
2022-08-03T16:40:53.371Z,34.62
2022-08-03T16:43:22.558Z,34.70
2022-08-03T16:45:49.911Z,35.00
2022-08-03T16:48:17.809Z,35.23
2022-08-03T16:50:45.424Z,35.17
2022-08-03T16:53:16.634Z,35.78
2022-08-03T16:55:53.726Z,35.81
2022-08-03T16:58:41.075Z,36.19
2022-08-03T17:01:24.026Z,35.83
2022-08-03T17:04:03.504Z,36.47
2022-08-03T17:06:37.755Z,36.63
2022-08-03T17:09:08.811Z,36.58
2022-08-03T17:11:44.058Z,36.65
2022-08-03T17:14:28.233Z,36.52
2022-08-03T17:17:01.646Z,37.23
2022-08-03T17:19:32.378Z,37.18
2022-08-03T17:22:08.982Z,37.42
2022-08-03T17:24:41.009Z,37.31
2022-08-03T17:27:18.609Z,37.84
2022-08-03T17:30:22.015Z,37.87
2022-08-03T17:32:57.959Z,37.77
2022-08-03T17:35:34.560Z,37.30
2022-08-03T17:38:08.893Z,37.78
2022-08-03T17:40:37.932Z,37.94
2022-08-03T17:44:13.283Z,38.75
2022-08-03T17:46:07.318Z,38.64
2022-08-03T17:48:41.536Z,38.60
2022-08-03T17:51:28.455Z,38.98
2022-08-03T17:54:18.321Z,39.33
2022-08-03T17:57:22.699Z,38.88
2022-08-03T18:00:23.346Z,39.06
2022-08-03T18:03:13.391Z,39.55
2022-08-03T18:06:10.930Z,39.46
2022-08-03T18:08:34.710Z,39.42
2022-08-03T18:11:09.644Z,39.59
2022-08-03T18:13:44.988Z,39.51
2022-08-03T18:16:52.856Z,40.20
2022-08-03T18:20:00.892Z,39.82
2022-08-03T18:22:54.807Z,39.92
2022-08-03T18:25:45.479Z,40.11
2022-08-03T18:29:12.542Z,40.58
2022-08-03T18:38:10.420Z,40.54
2022-08-03T18:41:46.484Z,40.74
2022-08-03T18:45:55.347Z,40.93
2022-08-03T18:48:46.240Z,41.37
2022-08-03T18:59:53.004Z,41.43
2022-08-03T19:03:02.415Z,41.48
2022-08-03T19:06:14.552Z,41.88
2022-08-03T19:08:56.017Z,41.42
2022-08-03T19:12:11.717Z,41.95
2022-08-03T19:14:28.761Z,42.21
2022-08-03T19:17:09.310Z,42.40
2022-08-03T19:19:43.423Z,42.02
2022-08-03T19:22:16.079Z,42.31
2022-08-03T19:25:05.715Z,42.53
2022-08-03T19:27:34.786Z,42.68
2022-08-03T19:30:11.922Z,43.10
2022-08-03T19:32:50.536Z,43.22
2022-08-03T19:38:27.422Z,43.80
2022-08-03T19:41:07.959Z,43.50
2022-08-03T19:43:52.786Z,43.72
2022-08-03T19:46:30.209Z,43.77
2022-08-03T19:49:10.708Z,44.18
2022-08-03T19:52:02.538Z,44.17
2022-08-03T19:54:53.712Z,44.43
2022-08-03T19:57:25.500Z,44.39
2022-08-03T19:59:55.836Z,44.10
2022-08-03T20:02:26.294Z,44.12
2022-08-03T20:05:00.538Z,44.83
2022-08-03T20:07:32.128Z,44.48
2022-08-03T20:10:02.155Z,44.57
2022-08-03T20:12:34.389Z,44.85
2022-08-03T20:15:07.524Z,44.81
2022-08-03T20:17:54.361Z,44.91
2022-08-03T20:20:25.820Z,45.05
2022-08-03T20:22:57.492Z,45.08
2022-08-03T20:28:32.991Z,45.86
2022-08-03T20:31:01.875Z,45.46
2022-08-03T20:33:48.860Z,45.34
2022-08-03T20:36:18.907Z,45.54
2022-08-03T20:38:50.171Z,46.24
2022-08-03T20:41:23.999Z,45.77
2022-08-03T20:43:51.172Z,46.33
2022-08-03T20:46:31.889Z,46.32
2022-08-03T20:49:06.193Z,46.26
2022-08-03T20:51:49.050Z,46.40
2022-08-03T20:54:29.341Z,46.52
2022-08-03T20:56:59.407Z,46.53
2022-08-03T20:59:46.961Z,46.61
2022-08-03T21:02:30.382Z,46.61
2022-08-03T21:05:03.362Z,46.54
2022-08-03T21:08:03.779Z,46.87
2022-08-03T21:10:29.442Z,46.75
2022-08-03T21:13:02.506Z,43.13
2022-08-03T21:13:12.389Z,45.57
2022-08-03T21:13:32.086Z,47.10
2022-08-03T21:16:11.439Z,47.06
2022-08-03T21:18:46.171Z,47.34
2022-08-03T21:21:16.174Z,47.25
2022-08-03T21:23:48.591Z,47.51
2022-08-03T21:26:18.744Z,47.42
2022-08-03T21:28:48.062Z,47.47
2022-08-03T21:31:25.414Z,47.54
2022-08-03T21:33:55.801Z,47.65
2022-08-03T21:36:23.757Z,47.79
2022-08-03T21:38:56.253Z,47.81
2022-08-03T21:41:24.939Z,47.28
2022-08-03T21:43:51.888Z,47.50
2022-08-03T21:46:20.150Z,47.62
2022-08-03T21:48:51.718Z,47.84
2022-08-03T21:51:20.213Z,47.61
2022-08-03T21:54:02.341Z,47.98
2022-08-03T21:56:41.616Z,48.16
2022-08-03T21:59:17.072Z,48.31
2022-08-03T22:01:49.329Z,47.84
2022-08-03T22:04:55.077Z,47.95
2022-08-03T22:07:08.852Z,47.72
2022-08-03T22:09:36.878Z,47.65
2022-08-03T22:12:04.440Z,47.57
2022-08-03T22:14:34.418Z,47.91
2022-08-03T22:17:03.404Z,47.79
2022-08-03T22:19:34.380Z,47.86
2022-08-03T22:22:07.767Z,48.09
2022-08-03T22:24:36.904Z,48.33
2022-08-03T22:27:22.852Z,47.97
2022-08-03T22:29:52.324Z,48.05
2022-08-03T22:32:19.799Z,48.26
2022-08-03T22:34:49.509Z,48.47
2022-08-03T22:37:19.926Z,48.61
2022-08-03T22:39:50.030Z,48.43
2022-08-03T22:42:19.685Z,48.41
2022-08-03T22:44:50.158Z,48.88
2022-08-03T22:47:22.568Z,49.04
2022-08-03T22:50:32.783Z,48.88
2022-08-03T22:52:41.853Z,48.86
2022-08-03T22:55:12.335Z,49.14
2022-08-03T22:57:56.125Z,49.04
2022-08-03T23:00:24.607Z,48.96
2022-08-03T23:02:54.021Z,49.15
2022-08-03T23:06:02.636Z,49.38
2022-08-03T23:08:14.828Z,49.43
2022-08-03T23:10:47.246Z,49.73
2022-08-03T23:13:18.704Z,49.92
2022-08-03T23:15:55.468Z,49.87
2022-08-03T23:18:23.917Z,49.70
2022-08-03T23:20:54.665Z,49.97
2022-08-03T23:23:22.935Z,49.85
2022-08-03T23:25:51.635Z,49.65
2022-08-03T23:28:19.225Z,49.66
2022-08-03T23:30:49.149Z,50.09
2022-08-03T23:33:17.590Z,49.85
2022-08-03T23:36:29.114Z,50.12
2022-08-03T23:38:46.175Z,50.40
2022-08-03T23:41:17.381Z,50.41
2022-08-03T23:43:53.694Z,50.54
2022-08-03T23:46:27.484Z,50.58
2022-08-03T23:48:56.713Z,50.45
2022-08-03T23:51:29.597Z,50.30
2022-08-03T23:54:06.604Z,51.02
2022-08-03T23:57:02.466Z,50.92
2022-08-03T23:59:39.878Z,50.84
